Impacts METAR Board INFO
IDs:

KATL - Atlanta/Hartsfield-J, GA, US

Updated at: 2254 UTC 21 Nov 2017
Potential Impact None Slight Moderate High
Time21/10Z 21/11Z 21/12Z 21/13Z 21/14Z 21/15Z 21/16Z 21/17Z 21/18Z 21/19Z 21/20Z 21/21Z 21/22Z
VIS10 10 10 10 10 10 10 10 10 10 10 10 10
CIG47 50 60 220 220 250 250 70 50 60 -- 60 55
CoverOVCOVCBKNBKNBKNBKNBKNBKNBKNBKNSCTBKNBKN
FltCatVFRVFRVFRVFRVFRVFRVFRVFRVFRVFRVFRVFRVFR
WX-------------------------RA
WDir70807080801101301201200120160100
WSpd5 7 6 10 7 8 9 5 6 0 3 4 3
WGst-- -- -- -- -- -- -- -- -- -- -- -- --
Raw hourly METARs
KATL 210952Z 07005KT 10SM FEW021 BKN047 OVC220 07/04 A3013 RMK AO2 SLP202 T00720039
KATL 211052Z 08007KT 10SM FEW020 BKN050 OVC220 07/04 A3013 RMK AO2 SLP205 T00720039
KATL 211152Z 07006KT 10SM FEW020 SCT042 BKN060 BKN220 07/04 A3013 RMK AO2 SLP205 T00720039 10078 20056 55002
KATL 211252Z 08010KT 10SM FEW020 SCT043 BKN220 07/03 A3012 RMK AO2 SLP204 T00720033
KATL 211352Z 08007KT 10SM FEW042 SCT055 BKN220 09/04 A3014 RMK AO2 SLP209 T00890044
KATL 211452Z 11008KT 10SM FEW045 SCT065 BKN250 11/06 A3013 RMK AO2 SLP203 T01110061 58001
KATL 211552Z 13009KT 10SM FEW050 SCT070 BKN250 12/07 A3012 RMK AO2 SLP200 T01220072
KATL 211652Z 12005KT 10SM FEW050 BKN070 BKN250 15/09 A3010 RMK AO2 SLP193 T01500089
KATL 211752Z 12006KT 10SM BKN050 BKN070 BKN250 17/11 A3006 RMK AO2 SLP180 ACC ALQDS T01720111 10172 20067 58021
KATL 211852Z 00000KT 10SM FEW050 BKN060 BKN080 BKN250 18/11 A3004 RMK AO2 SLP171 ACC NE-E & NW T01780111
KATL 211952Z 12003KT 10SM FEW050 SCT080 SCT250 19/12 A3002 RMK AO2 SLP163 ACC SW-W T01890117
KATL 212052Z 16004KT 10SM FEW045 BKN060 BKN250 18/12 A3001 RMK AO2 SLP162 T01830117 56017
KATL 212152Z 10003KT 10SM -RA SCT040 BKN055 BKN080 BKN250 18/12 A3001 RMK AO2 RAB49 SLP162 P0000 T01780122